sensor_id;sensor_type;location;lat;lon;timestamp;pressure;altitude;pressure_sealevel;temperature;humidity
62849;BME280;48941;49.516;8.286;2024-03-23T00:54:16;99556.16;;;10.23;100.00
62849;BME280;48941;49.516;8.286;2024-03-23T00:56:43;99545.53;;;10.23;100.00
62849;BME280;48941;49.516;8.286;2024-03-23T00:59:09;99547.50;;;10.21;100.00
62849;BME280;48941;49.516;8.286;2024-03-23T01:01:35;99550.97;;;10.22;100.00
62849;BME280;48941;49.516;8.286;2024-03-23T01:04:02;99534.88;;;10.23;100.00
62849;BME280;48941;49.516;8.286;2024-03-23T01:06:29;99531.78;;;10.28;100.00
62849;BME280;48941;49.516;8.286;2024-03-23T01:08:55;99534.22;;;10.31;100.00
62849;BME280;48941;49.516;8.286;2024-03-23T01:11:24;99529.00;;;10.29;100.00
62849;BME280;48941;49.516;8.286;2024-03-23T01:13:49;99527.16;;;10.20;100.00
62849;BME280;48941;49.516;8.286;2024-03-23T01:16:16;99531.09;;;10.16;100.00
62849;BME280;48941;49.516;8.286;2024-03-23T01:18:42;99532.22;;;10.13;100.00
62849;BME280;48941;49.516;8.286;2024-03-23T01:21:09;99532.34;;;10.12;100.00
62849;BME280;48941;49.516;8.286;2024-03-23T01:23:35;99528.44;;;10.16;100.00
62849;BME280;48941;49.516;8.286;2024-03-23T01:26:02;99526.19;;;10.11;100.00
62849;BME280;48941;49.516;8.286;2024-03-23T01:28:29;99523.09;;;10.06;100.00
62849;BME280;48941;49.516;8.286;2024-03-23T01:30:56;99529.88;;;10.01;100.00
62849;BME280;48941;49.516;8.286;2024-03-23T01:33:21;99519.22;;;10.01;100.00
62849;BME280;48941;49.516;8.286;2024-03-23T01:35:48;99529.56;;;9.94;100.00
62849;BME280;48941;49.516;8.286;2024-03-23T01:38:14;99523.41;;;9.93;100.00
62849;BME280;48941;49.516;8.286;2024-03-23T01:40:41;99527.91;;;9.93;100.00
62849;BME280;48941;49.516;8.286;2024-03-23T01:43:07;99529.28;;;9.97;100.00
62849;BME280;48941;49.516;8.286;2024-03-23T01:45:36;99526.34;;;10.00;100.00
62849;BME280;48941;49.516;8.286;2024-03-23T01:48:03;99519.63;;;10.06;100.00
62849;BME280;48941;49.516;8.286;2024-03-23T01:50:31;99520.88;;;10.11;100.00
62849;BME280;48941;49.516;8.286;2024-03-23T01:52:59;99510.66;;;10.16;100.00
62849;BME280;48941;49.516;8.286;2024-03-23T01:55:27;99513.84;;;10.20;100.00
62849;BME280;48941;49.516;8.286;2024-03-23T01:57:52;99510.38;;;10.20;100.00
62849;BME280;48941;49.516;8.286;2024-03-23T02:00:19;99500.28;;;10.23;100.00
62849;BME280;48941;49.516;8.286;2024-03-23T02:02:47;99508.66;;;10.28;100.00
62849;BME280;48941;49.516;8.286;2024-03-23T02:05:14;99504.34;;;10.37;100.00
62849;BME280;48941;49.516;8.286;2024-03-23T02:07:41;99490.75;;;10.40;100.00
62849;BME280;48941;49.516;8.286;2024-03-23T02:10:09;99490.16;;;10.46;100.00
62849;BME280;48941;49.516;8.286;2024-03-23T02:12:35;99491.41;;;10.52;100.00
62849;BME280;48941;49.516;8.286;2024-03-23T02:15:03;99485.69;;;10.56;100.00
62849;BME280;48941;49.516;8.286;2024-03-23T02:17:30;99487.59;;;10.64;100.00
62849;BME280;48941;49.516;8.286;2024-03-23T02:19:59;99485.06;;;10.72;100.00
62849;BME280;48941;49.516;8.286;2024-03-23T02:22:35;99486.69;;;10.83;100.00
62849;BME280;48941;49.516;8.286;2024-03-23T02:25:04;99474.31;;;10.92;100.00
62849;BME280;48941;49.516;8.286;2024-03-23T02:27:29;99479.03;;;10.98;100.00
62849;BME280;48941;49.516;8.286;2024-03-23T02:29:56;99467.78;;;11.04;100.00
62849;BME280;48941;49.516;8.286;2024-03-23T02:32:22;99469.03;;;11.10;100.00
62849;BME280;48941;49.516;8.286;2024-03-23T02:34:49;99475.72;;;11.14;100.00
62849;BME280;48941;49.516;8.286;2024-03-23T02:37:15;99470.81;;;11.19;100.00
62849;BME280;48941;49.516;8.286;2024-03-23T02:39:42;99473.84;;;11.24;100.00
62849;BME280;48941;49.516;8.286;2024-03-23T02:42:09;99477.59;;;11.31;100.00
62849;BME280;48941;49.516;8.286;2024-03-23T02:44:36;99482.66;;;11.34;100.00
62849;BME280;48941;49.516;8.286;2024-03-23T02:47:01;99479.66;;;11.38;100.00
62849;BME280;48941;49.516;8.286;2024-03-23T02:49:28;99485.41;;;11.43;100.00
62849;BME280;48941;49.516;8.286;2024-03-23T02:51:54;99485.75;;;11.48;100.00
62849;BME280;48941;49.516;8.286;2024-03-23T02:54:21;99487.13;;;11.52;100.00
62849;BME280;48941;49.516;8.286;2024-03-23T02:56:47;99485.69;;;11.57;100.00
62849;BME280;48941;49.516;8.286;2024-03-23T02:59:15;99495.75;;;11.64;100.00
62849;BME280;48941;49.516;8.286;2024-03-23T03:01:41;99492.47;;;11.70;100.00
62849;BME280;48941;49.516;8.286;2024-03-23T03:04:07;99496.22;;;11.77;100.00
62849;BME280;48941;49.516;8.286;2024-03-23T03:06:33;99490.44;;;11.82;100.00
62849;BME280;48941;49.516;8.286;2024-03-23T03:09:00;99489.69;;;11.89;100.00
62849;BME280;48941;49.516;8.286;2024-03-23T03:11:26;99476.06;;;11.92;100.00
62849;BME280;48941;49.516;8.286;2024-03-23T03:13:53;99461.41;;;11.97;100.00
62849;BME280;48941;49.516;8.286;2024-03-23T03:16:20;99457.75;;;11.98;100.00
62849;BME280;48941;49.516;8.286;2024-03-23T03:18:47;99464.78;;;11.99;100.00
62849;BME280;48941;49.516;8.286;2024-03-23T03:21:12;99456.75;;;11.99;100.00
62849;BME280;48941;49.516;8.286;2024-03-23T03:23:39;99455.75;;;12.00;100.00
62849;BME280;48941;49.516;8.286;2024-03-23T03:26:05;99456.75;;;11.99;100.00
62849;BME280;48941;49.516;8.286;2024-03-23T03:28:32;99455.59;;;12.01;100.00
62849;BME280;48941;49.516;8.286;2024-03-23T03:30:58;99461.34;;;12.06;100.00
62849;BME280;48941;49.516;8.286;2024-03-23T03:33:27;99462.00;;;12.08;100.00
62849;BME280;48941;49.516;8.286;2024-03-23T03:35:53;99466.66;;;12.06;100.00
62849;BME280;48941;49.516;8.286;2024-03-23T03:38:20;99463.00;;;12.07;100.00
62849;BME280;48941;49.516;8.286;2024-03-23T03:40:47;99462.16;;;12.07;100.00
62849;BME280;48941;49.516;8.286;2024-03-23T03:43:13;99450.47;;;12.08;100.00
62849;BME280;48941;49.516;8.286;2024-03-23T03:45:39;99457.34;;;12.10;100.00
62849;BME280;48941;49.516;8.286;2024-03-23T03:48:07;99454.84;;;12.09;100.00
62849;BME280;48941;49.516;8.286;2024-03-23T03:50:34;99449.34;;;12.10;100.00
62849;BME280;48941;49.516;8.286;2024-03-23T03:53:01;99447.66;;;12.09;100.00
62849;BME280;48941;49.516;8.286;2024-03-23T03:55:27;99430.66;;;12.10;100.00
62849;BME280;48941;49.516;8.286;2024-03-23T03:57:53;99423.50;;;12.11;100.00
62849;BME280;48941;49.516;8.286;2024-03-23T04:00:19;99435.13;;;12.10;100.00
62849;BME280;48941;49.516;8.286;2024-03-23T04:02:46;99444.00;;;12.10;100.00
62849;BME280;48941;49.516;8.286;2024-03-23T04:05:12;99439.81;;;12.08;100.00
62849;BME280;48941;49.516;8.286;2024-03-23T04:07:42;99452.47;;;12.06;100.00
62849;BME280;48941;49.516;8.286;2024-03-23T04:10:08;99462.47;;;12.04;100.00
62849;BME280;48941;49.516;8.286;2024-03-23T04:12:35;99458.97;;;12.03;100.00
62849;BME280;48941;49.516;8.286;2024-03-23T04:15:00;99458.28;;;12.01;100.00
62849;BME280;48941;49.516;8.286;2024-03-23T04:17:29;99451.25;;;12.00;100.00
62849;BME280;48941;49.516;8.286;2024-03-23T04:19:57;99442.88;;;11.95;100.00
62849;BME280;48941;49.516;8.286;2024-03-23T04:22:24;99443.72;;;11.95;100.00
62849;BME280;48941;49.516;8.286;2024-03-23T04:24:54;99442.34;;;11.91;100.00
62849;BME280;48941;49.516;8.286;2024-03-23T04:27:21;99448.53;;;11.92;100.00
62849;BME280;48941;49.516;8.286;2024-03-23T04:29:47;99447.97;;;11.88;100.00
62849;BME280;48941;49.516;8.286;2024-03-23T04:32:14;99447.00;;;11.89;100.00
62849;BME280;48941;49.516;8.286;2024-03-23T04:34:40;99454.63;;;11.84;100.00
62849;BME280;48941;49.516;8.286;2024-03-23T04:37:07;99451.28;;;11.82;100.00
62849;BME280;48941;49.516;8.286;2024-03-23T04:39:35;99446.91;;;11.81;100.00
62849;BME280;48941;49.516;8.286;2024-03-23T04:42:04;99471.91;;;11.80;100.00
62849;BME280;48941;49.516;8.286;2024-03-23T04:44:32;99474.19;;;11.75;100.00
62849;BME280;48941;49.516;8.286;2024-03-23T04:46:58;99475.72;;;11.77;100.00
62849;BME280;48941;49.516;8.286;2024-03-23T04:49:24;99478.84;;;11.73;100.00
62849;BME280;48941;49.516;8.286;2024-03-23T04:51:51;99476.34;;;11.71;100.00
62849;BME280;48941;49.516;8.286;2024-03-23T04:54:17;99460.94;;;11.65;100.00
62849;BME280;48941;49.516;8.286;2024-03-23T04:56:45;99469.09;;;11.64;100.00
62849;BME280;48941;49.516;8.286;2024-03-23T04:59:13;99478.03;;;11.54;100.00
62849;BME280;48941;49.516;8.286;2024-03-23T05:01:40;99495.00;;;11.53;100.00
62849;BME280;48941;49.516;8.286;2024-03-23T05:04:07;99509.75;;;11.48;100.00
62849;BME280;48941;49.516;8.286;2024-03-23T05:06:33;99543.47;;;11.21;100.00
62849;BME280;48941;49.516;8.286;2024-03-23T05:09:00;99550.88;;;10.90;100.00
62849;BME280;48941;49.516;8.286;2024-03-23T05:11:28;99560.19;;;10.66;100.00
62849;BME280;48941;49.516;8.286;2024-03-23T05:13:55;99556.69;;;10.66;100.00
62849;BME280;48941;49.516;8.286;2024-03-23T05:16:22;99579.72;;;10.47;100.00
62849;BME280;48941;49.516;8.286;2024-03-23T05:18:49;99575.94;;;10.30;100.00
62849;BME280;48941;49.516;8.286;2024-03-23T05:21:15;99589.94;;;10.13;100.00
62849;BME280;48941;49.516;8.286;2024-03-23T05:23:41;99590.88;;;10.02;100.00
62849;BME280;48941;49.516;8.286;2024-03-23T05:26:08;99578.13;;;9.96;100.00
62849;BME280;48941;49.516;8.286;2024-03-23T05:28:36;99573.81;;;9.95;100.00
62849;BME280;48941;49.516;8.286;2024-03-23T05:31:02;99577.75;;;9.91;100.00
62849;BME280;48941;49.516;8.286;2024-03-23T05:33:30;99582.47;;;9.77;100.00
62849;BME280;48941;49.516;8.286;2024-03-23T05:35:57;99586.63;;;9.70;100.00
62849;BME280;48941;49.516;8.286;2024-03-23T05:38:24;99587.22;;;9.74;100.00
62849;BME280;48941;49.516;8.286;2024-03-23T05:40:53;99594.19;;;9.55;100.00
62849;BME280;48941;49.516;8.286;2024-03-23T05:43:20;99598.91;;;9.52;100.00
62849;BME280;48941;49.516;8.286;2024-03-23T05:45:53;99608.00;;;9.49;100.00
62849;BME280;48941;49.516;8.286;2024-03-23T05:48:19;99603.38;;;9.42;100.00
62849;BME280;48941;49.516;8.286;2024-03-23T05:50:47;99606.03;;;9.42;100.00
62849;BME280;48941;49.516;8.286;2024-03-23T05:53:14;99598.00;;;9.32;100.00
62849;BME280;48941;49.516;8.286;2024-03-23T05:55:40;99599.97;;;9.30;100.00
62849;BME280;48941;49.516;8.286;2024-03-23T05:58:07;99625.25;;;9.24;100.00
62849;BME280;48941;49.516;8.286;2024-03-23T06:00:33;99629.16;;;9.20;100.00
62849;BME280;48941;49.516;8.286;2024-03-23T06:03:00;99639.91;;;9.18;100.00
62849;BME280;48941;49.516;8.286;2024-03-23T06:05:26;99647.16;;;9.16;100.00
62849;BME280;48941;49.516;8.286;2024-03-23T06:07:54;99660.28;;;9.08;100.00
62849;BME280;48941;49.516;8.286;2024-03-23T06:10:20;99664.88;;;9.06;100.00
62849;BME280;48941;49.516;8.286;2024-03-23T06:12:47;99679.25;;;9.04;100.00
62849;BME280;48941;49.516;8.286;2024-03-23T06:15:14;99683.41;;;8.96;100.00
62849;BME280;48941;49.516;8.286;2024-03-23T06:17:41;99687.56;;;8.89;100.00
62849;BME280;48941;49.516;8.286;2024-03-23T06:20:08;99691.66;;;8.93;100.00
62849;BME280;48941;49.516;8.286;2024-03-23T06:22:35;99681.94;;;8.83;100.00
62849;BME280;48941;49.516;8.286;2024-03-23T06:25:03;99677.97;;;8.77;100.00
62849;BME280;48941;49.516;8.286;2024-03-23T06:27:30;99683.13;;;8.78;100.00
62849;BME280;48941;49.516;8.286;2024-03-23T06:29:57;99698.03;;;8.70;100.00
62849;BME280;48941;49.516;8.286;2024-03-23T06:32:24;99702.91;;;8.65;100.00
62849;BME280;48941;49.516;8.286;2024-03-23T06:34:50;99697.25;;;8.58;100.00
62849;BME280;48941;49.516;8.286;2024-03-23T06:37:17;99682.16;;;8.58;100.00
62849;BME280;48941;49.516;8.286;2024-03-23T06:39:45;99717.63;;;8.57;100.00
62849;BME280;48941;49.516;8.286;2024-03-23T06:42:13;99726.81;;;8.53;100.00
62849;BME280;48941;49.516;8.286;2024-03-23T06:44:39;99731.03;;;8.56;100.00
62849;BME280;48941;49.516;8.286;2024-03-23T06:47:06;99747.69;;;8.58;100.00
62849;BME280;48941;49.516;8.286;2024-03-23T06:49:32;99755.25;;;8.63;100.00
62849;BME280;48941;49.516;8.286;2024-03-23T06:51:58;99756.34;;;8.60;100.00
62849;BME280;48941;49.516;8.286;2024-03-23T06:54:24;99766.13;;;8.60;100.00
62849;BME280;48941;49.516;8.286;2024-03-23T06:56:51;99774.22;;;8.58;100.00
62849;BME280;48941;49.516;8.286;2024-03-23T06:59:18;99787.59;;;8.56;100.00
62849;BME280;48941;49.516;8.286;2024-03-23T07:01:45;99800.53;;;8.61;100.00
62849;BME280;48941;49.516;8.286;2024-03-23T07:04:11;99798.50;;;8.53;100.00
62849;BME280;48941;49.516;8.286;2024-03-23T07:06:42;99794.84;;;8.54;100.00
62849;BME280;48941;49.516;8.286;2024-03-23T07:09:10;99806.56;;;8.52;100.00
62849;BME280;48941;49.516;8.286;2024-03-23T07:11:38;99797.00;;;8.72;100.00
62849;BME280;48941;49.516;8.286;2024-03-23T07:14:04;99802.88;;;9.08;100.00
62849;BME280;48941;49.516;8.286;2024-03-23T07:16:32;99813.59;;;9.60;100.00
62849;BME280;48941;49.516;8.286;2024-03-23T07:18:59;99832.63;;;10.07;100.00
62849;BME280;48941;49.516;8.286;2024-03-23T07:21:26;99843.72;;;10.22;95.50
62849;BME280;48941;49.516;8.286;2024-03-23T07:23:52;99852.91;;;10.08;95.72
62849;BME280;48941;49.516;8.286;2024-03-23T07:26:19;99870.66;;;9.97;94.18
62849;BME280;48941;49.516;8.286;2024-03-23T07:28:45;99866.88;;;10.00;97.62
62849;BME280;48941;49.516;8.286;2024-03-23T07:31:12;99885.53;;;9.79;99.02
62849;BME280;48941;49.516;8.286;2024-03-23T07:33:44;99887.00;;;9.72;98.70
62849;BME280;48941;49.516;8.286;2024-03-23T07:36:11;99883.03;;;9.66;95.94
62849;BME280;48941;49.516;8.286;2024-03-23T07:38:36;99888.88;;;9.60;93.76
62849;BME280;48941;49.516;8.286;2024-03-23T07:41:04;99890.75;;;9.48;93.90
62849;BME280;48941;49.516;8.286;2024-03-23T07:43:30;99894.09;;;9.83;91.26
62849;BME280;48941;49.516;8.286;2024-03-23T07:45:57;99906.50;;;10.24;90.05
62849;BME280;48941;49.516;8.286;2024-03-23T07:48:24;99914.19;;;10.48;88.42
62849;BME280;48941;49.516;8.286;2024-03-23T07:50:59;99911.63;;;10.77;86.21
62849;BME280;48941;49.516;8.286;2024-03-23T07:53:25;99915.59;;;10.93;84.50
62849;BME280;48941;49.516;8.286;2024-03-23T07:55:54;99920.69;;;11.15;82.49
62849;BME280;48941;49.516;8.286;2024-03-23T07:58:21;99927.31;;;11.31;82.55
62849;BME280;48941;49.516;8.286;2024-03-23T08:00:47;99932.34;;;11.24;80.07
62849;BME280;48941;49.516;8.286;2024-03-23T08:03:16;99935.44;;;11.29;79.25
62849;BME280;48941;49.516;8.286;2024-03-23T08:05:43;99936.59;;;11.36;79.06
62849;BME280;48941;49.516;8.286;2024-03-23T08:08:11;99942.72;;;11.18;78.85
62849;BME280;48941;49.516;8.286;2024-03-23T08:10:47;99950.38;;;10.91;77.47
62849;BME280;48941;49.516;8.286;2024-03-23T08:13:13;99951.31;;;10.71;80.69
62849;BME280;48941;49.516;8.286;2024-03-23T08:15:39;99957.84;;;10.57;79.09
62849;BME280;48941;49.516;8.286;2024-03-23T08:18:05;99961.16;;;10.49;83.10
62849;BME280;48941;49.516;8.286;2024-03-23T08:20:32;99961.69;;;10.43;86.20
62849;BME280;48941;49.516;8.286;2024-03-23T08:22:58;99959.03;;;10.43;84.24
62849;BME280;48941;49.516;8.286;2024-03-23T08:25:26;99970.69;;;10.52;84.53
62849;BME280;48941;49.516;8.286;2024-03-23T08:27:52;99971.91;;;10.69;81.55
62849;BME280;48941;49.516;8.286;2024-03-23T08:30:19;99968.03;;;10.83;80.69
62849;BME280;48941;49.516;8.286;2024-03-23T08:32:45;99973.06;;;10.86;80.30
62849;BME280;48941;49.516;8.286;2024-03-23T08:35:12;99975.06;;;10.93;79.47
62849;BME280;48941;49.516;8.286;2024-03-23T08:37:38;99977.16;;;10.90;77.55
62849;BME280;48941;49.516;8.286;2024-03-23T08:40:06;99981.94;;;10.96;78.32
62849;BME280;48941;49.516;8.286;2024-03-23T08:42:35;99983.94;;;11.04;77.17
62849;BME280;48941;49.516;8.286;2024-03-23T08:45:02;99987.59;;;11.03;76.37
62849;BME280;48941;49.516;8.286;2024-03-23T08:47:28;99989.44;;;11.22;76.23
62849;BME280;48941;49.516;8.286;2024-03-23T08:49:55;99989.75;;;11.48;73.00
62849;BME280;48941;49.516;8.286;2024-03-23T08:52:23;99995.94;;;11.58;72.41
62849;BME280;48941;49.516;8.286;2024-03-23T08:54:51;99997.22;;;11.64;71.20
62849;BME280;48941;49.516;8.286;2024-03-23T08:57:18;100000.19;;;11.61;71.32
62849;BME280;48941;49.516;8.286;2024-03-23T08:59:45;99993.28;;;11.58;68.77
62849;BME280;48941;49.516;8.286;2024-03-23T09:02:12;100001.16;;;11.60;69.21
62849;BME280;48941;49.516;8.286;2024-03-23T09:04:38;100006.22;;;11.53;67.71
62849;BME280;48941;49.516;8.286;2024-03-23T09:07:04;100001.56;;;11.45;67.52
62849;BME280;48941;49.516;8.286;2024-03-23T09:09:30;99999.31;;;11.41;64.79
62849;BME280;48941;49.516;8.286;2024-03-23T09:11:57;100008.84;;;11.33;64.88
62849;BME280;48941;49.516;8.286;2024-03-23T09:14:23;100001.41;;;11.37;63.68
62849;BME280;48941;49.516;8.286;2024-03-23T09:16:51;100002.53;;;11.54;63.20
62849;BME280;48941;49.516;8.286;2024-03-23T09:19:17;100001.75;;;11.83;63.42
62849;BME280;48941;49.516;8.286;2024-03-23T09:21:45;99995.69;;;12.10;62.79
62849;BME280;48941;49.516;8.286;2024-03-23T09:24:11;99999.75;;;12.33;59.27
62849;BME280;48941;49.516;8.286;2024-03-23T09:26:38;100004.59;;;12.58;57.65
62849;BME280;48941;49.516;8.286;2024-03-23T09:29:04;99998.47;;;12.85;56.14
62849;BME280;48941;49.516;8.286;2024-03-23T09:31:30;100012.66;;;12.85;55.69
62849;BME280;48941;49.516;8.286;2024-03-23T09:34:00;100004.38;;;12.88;56.65
62849;BME280;48941;49.516;8.286;2024-03-23T09:36:27;100009.59;;;12.80;53.70
62849;BME280;48941;49.516;8.286;2024-03-23T09:38:53;100022.13;;;12.70;51.79
62849;BME280;48941;49.516;8.286;2024-03-23T09:41:20;100017.25;;;12.55;51.22
62849;BME280;48941;49.516;8.286;2024-03-23T09:43:46;100015.59;;;12.54;51.57
62849;BME280;48941;49.516;8.286;2024-03-23T09:46:14;100012.25;;;12.43;52.62
62849;BME280;48941;49.516;8.286;2024-03-23T09:48:40;100015.03;;;12.41;51.73
62849;BME280;48941;49.516;8.286;2024-03-23T09:51:08;100017.59;;;12.43;52.28
62849;BME280;48941;49.516;8.286;2024-03-23T09:53:35;100011.22;;;12.44;52.49
62849;BME280;48941;49.516;8.286;2024-03-23T09:56:03;100000.53;;;12.53;51.54
62849;BME280;48941;49.516;8.286;2024-03-23T09:58:28;100003.47;;;12.60;51.37
62849;BME280;48941;49.516;8.286;2024-03-23T10:00:57;99991.22;;;12.67;52.13
62849;BME280;48941;49.516;8.286;2024-03-23T10:03:23;99985.59;;;12.70;48.55
62849;BME280;48941;49.516;8.286;2024-03-23T10:06:00;99985.28;;;12.73;47.46
62849;BME280;48941;49.516;8.286;2024-03-23T10:08:28;99988.91;;;12.82;49.65
62849;BME280;48941;49.516;8.286;2024-03-23T10:10:55;99996.94;;;12.82;50.26
62849;BME280;48941;49.516;8.286;2024-03-23T10:13:24;99996.25;;;12.80;49.65
62849;BME280;48941;49.516;8.286;2024-03-23T10:15:55;99987.84;;;12.65;47.91
62849;BME280;48941;49.516;8.286;2024-03-23T10:18:22;99997.44;;;12.58;48.15
62849;BME280;48941;49.516;8.286;2024-03-23T10:20:52;99996.34;;;12.51;48.13
62849;BME280;48941;49.516;8.286;2024-03-23T10:23:18;99999.59;;;12.45;47.28
62849;BME280;48941;49.516;8.286;2024-03-23T10:25:46;100002.38;;;12.43;46.46
62849;BME280;48941;49.516;8.286;2024-03-23T10:28:12;100005.06;;;12.33;46.42
62849;BME280;48941;49.516;8.286;2024-03-23T10:30:39;100002.72;;;12.21;47.31
62849;BME280;48941;49.516;8.286;2024-03-23T10:33:09;100002.28;;;12.15;48.78
62849;BME280;48941;49.516;8.286;2024-03-23T10:35:37;100007.28;;;12.48;48.07
62849;BME280;48941;49.516;8.286;2024-03-23T10:38:05;100002.88;;;12.76;47.38
62849;BME280;48941;49.516;8.286;2024-03-23T10:40:34;99998.38;;;13.04;47.59
62849;BME280;48941;49.516;8.286;2024-03-23T10:43:03;99998.06;;;13.07;44.85
62849;BME280;48941;49.516;8.286;2024-03-23T10:45:31;99995.16;;;13.01;46.38
62849;BME280;48941;49.516;8.286;2024-03-23T10:47:57;100002.06;;;12.93;45.88
62849;BME280;48941;49.516;8.286;2024-03-23T10:50:24;99994.78;;;12.86;45.58
62849;BME280;48941;49.516;8.286;2024-03-23T10:52:52;99999.59;;;12.82;46.26
62849;BME280;48941;49.516;8.286;2024-03-23T10:55:22;99994.50;;;12.89;47.57
62849;BME280;48941;49.516;8.286;2024-03-23T10:57:52;99990.00;;;12.89;46.50
62849;BME280;48941;49.516;8.286;2024-03-23T11:00:21;99995.09;;;12.83;46.91
62849;BME280;48941;49.516;8.286;2024-03-23T11:02:49;99991.03;;;12.79;47.62
62849;BME280;48941;49.516;8.286;2024-03-23T11:05:28;99991.44;;;12.74;47.53
62849;BME280;48941;49.516;8.286;2024-03-23T11:07:55;99989.78;;;12.73;47.73
62849;BME280;48941;49.516;8.286;2024-03-23T11:10:26;99979.00;;;12.65;46.75
62849;BME280;48941;49.516;8.286;2024-03-23T11:12:53;99971.81;;;12.65;48.15
62849;BME280;48941;49.516;8.286;2024-03-23T11:15:21;99970.84;;;12.66;48.65
62849;BME280;48941;49.516;8.286;2024-03-23T11:18:05;99962.97;;;12.65;47.75
62849;BME280;48941;49.516;8.286;2024-03-23T11:20:34;99972.25;;;12.61;47.27
62849;BME280;48941;49.516;8.286;2024-03-23T11:23:00;99980.31;;;12.51;47.56
62849;BME280;48941;49.516;8.286;2024-03-23T11:25:27;99992.28;;;12.37;48.69
62849;BME280;48941;49.516;8.286;2024-03-23T11:27:55;100018.63;;;12.03;54.48
62849;BME280;48941;49.516;8.286;2024-03-23T11:30:25;100037.69;;;11.69;65.13
62849;BME280;48941;49.516;8.286;2024-03-23T11:32:53;100040.59;;;11.46;72.05
62849;BME280;48941;49.516;8.286;2024-03-23T11:35:28;100037.03;;;11.36;73.38
62849;BME280;48941;49.516;8.286;2024-03-23T11:38:04;100031.25;;;11.21;73.48
62849;BME280;48941;49.516;8.286;2024-03-23T11:40:32;100022.16;;;11.33;74.93
62849;BME280;48941;49.516;8.286;2024-03-23T11:43:00;100013.94;;;11.46;73.80
62849;BME280;48941;49.516;8.286;2024-03-23T11:45:33;100006.94;;;11.74;73.36
62849;BME280;48941;49.516;8.286;2024-03-23T11:48:05;100000.22;;;11.90;72.49
62849;BME280;48941;49.516;8.286;2024-03-23T11:50:32;99994.72;;;12.11;69.09
62849;BME280;48941;49.516;8.286;2024-03-23T11:53:17;99989.34;;;12.40;69.61
62849;BME280;48941;49.516;8.286;2024-03-23T11:55:47;99990.97;;;12.51;64.94
62849;BME280;48941;49.516;8.286;2024-03-23T11:58:14;99985.91;;;12.58;61.02
62849;BME280;48941;49.516;8.286;2024-03-23T12:00:43;99983.31;;;12.66;61.11
62849;BME280;48941;49.516;8.286;2024-03-23T12:03:16;99980.53;;;12.67;61.88
62849;BME280;48941;49.516;8.286;2024-03-23T12:05:47;99984.38;;;12.55;55.17
62849;BME280;48941;49.516;8.286;2024-03-23T12:08:23;99984.22;;;12.57;58.67
62849;BME280;48941;49.516;8.286;2024-03-23T12:10:52;99998.75;;;12.44;58.74
62849;BME280;48941;49.516;8.286;2024-03-23T12:13:20;99998.47;;;12.28;58.81
62849;BME280;48941;49.516;8.286;2024-03-23T12:15:50;100015.09;;;11.83;57.87
62849;BME280;48941;49.516;8.286;2024-03-23T12:18:16;100011.53;;;11.53;58.21
62849;BME280;48941;49.516;8.286;2024-03-23T12:20:43;100004.06;;;11.27;60.07
62849;BME280;48941;49.516;8.286;2024-03-23T12:23:10;99992.25;;;11.20;62.30
62849;BME280;48941;49.516;8.286;2024-03-23T12:25:39;99985.38;;;11.18;61.50
62849;BME280;48941;49.516;8.286;2024-03-23T12:28:05;99979.34;;;11.25;58.85
62849;BME280;48941;49.516;8.286;2024-03-23T12:30:38;99998.22;;;11.63;58.24
62849;BME280;48941;49.516;8.286;2024-03-23T12:33:06;99985.19;;;11.99;55.98
62849;BME280;48941;49.516;8.286;2024-03-23T12:35:33;99992.75;;;12.13;56.93
62849;BME280;48941;49.516;8.286;2024-03-23T12:37:59;100003.00;;;12.18;55.85
62849;BME280;48941;49.516;8.286;2024-03-23T12:40:26;100003.56;;;12.21;54.84
62849;BME280;48941;49.516;8.286;2024-03-23T12:42:52;100022.97;;;12.13;55.17
62849;BME280;48941;49.516;8.286;2024-03-23T12:45:19;100051.84;;;11.60;60.35
62849;BME280;48941;49.516;8.286;2024-03-23T12:47:45;100053.63;;;10.99;66.71
62849;BME280;48941;49.516;8.286;2024-03-23T12:50:13;100044.16;;;10.85;70.51
62849;BME280;48941;49.516;8.286;2024-03-23T12:52:39;100006.00;;;10.54;71.98
62849;BME280;48941;49.516;8.286;2024-03-23T12:55:07;100012.91;;;10.56;73.59
62849;BME280;48941;49.516;8.286;2024-03-23T12:57:33;99989.88;;;10.25;73.49
62849;BME280;48941;49.516;8.286;2024-03-23T13:00:01;99995.88;;;10.06;74.94
62849;BME280;48941;49.516;8.286;2024-03-23T13:02:29;99989.88;;;10.25;77.72
62849;BME280;48941;49.516;8.286;2024-03-23T13:04:56;99993.41;;;10.56;75.08
62849;BME280;48941;49.516;8.286;2024-03-23T13:07:23;99983.31;;;10.81;72.55
62849;BME280;48941;49.516;8.286;2024-03-23T13:09:51;99984.09;;;11.12;71.23
62849;BME280;48941;49.516;8.286;2024-03-23T13:12:17;99984.59;;;11.46;68.28
62849;BME280;48941;49.516;8.286;2024-03-23T13:14:46;99976.47;;;11.87;67.90
62849;BME280;48941;49.516;8.286;2024-03-23T13:17:12;99981.78;;;12.16;65.47
62849;BME280;48941;49.516;8.286;2024-03-23T13:19:40;99983.41;;;12.46;64.78
62849;BME280;48941;49.516;8.286;2024-03-23T13:22:06;99978.22;;;12.82;63.63
62849;BME280;48941;49.516;8.286;2024-03-23T13:24:35;99976.81;;;13.06;61.90
62849;BME280;48941;49.516;8.286;2024-03-23T13:27:01;99975.72;;;13.36;60.74
62849;BME280;48941;49.516;8.286;2024-03-23T13:29:30;99973.34;;;13.69;60.57
62849;BME280;48941;49.516;8.286;2024-03-23T13:31:57;99977.09;;;13.94;57.23
62849;BME280;48941;49.516;8.286;2024-03-23T13:34:25;99976.19;;;14.11;54.80
62849;BME280;48941;49.516;8.286;2024-03-23T13:36:51;99981.03;;;14.08;54.87
62849;BME280;48941;49.516;8.286;2024-03-23T13:39:18;99976.75;;;13.97;55.03
62849;BME280;48941;49.516;8.286;2024-03-23T13:41:46;99975.31;;;13.85;55.39
62849;BME280;48941;49.516;8.286;2024-03-23T13:44:13;99972.03;;;13.55;55.70
62849;BME280;48941;49.516;8.286;2024-03-23T13:46:41;99972.88;;;13.28;56.84
62849;BME280;48941;49.516;8.286;2024-03-23T13:49:24;99967.03;;;13.24;56.63